Bueyeros, New Mexico
Current Conditions -  °F | °C
As of 3:55 PM on Wednesday 22 Oct 2014 (Local Time) from KCAO Reporting Station
Clear Clear  
Wind Chill: 74°   Ceiling: Unl
Heat Index: 74°   Visibility: 10mi
Dew Point: 38°   Wind: 10mph
Humidity: 27%   Direction: 10°N
Pressure: 30.06"   Gusts: NA
Location:  36.2639°N, 103.376°W
Report Text: KCAO 222155Z AUTO 01009KT 10SM CLR 23/03 A3006 RMK AO2 SLP127 T02330033
Loading
Personal Weather Stations






























Interactive Weather Map
Tropical Storm Tracking
New forecast layout! Learn more

10-Day Weather Forecast

Advertisements
Track Severe Weather on mobile